sensor_id;sensor_type;location;lat;lon;timestamp;temperature;humidity
17007;DHT22;8620;51.168;4.154;2024-03-08T07:38:07;5.00;99.90
17007;DHT22;8620;51.168;4.154;2024-03-08T07:40:39;5.40;99.90
17007;DHT22;8620;51.168;4.154;2024-03-08T07:43:15;5.50;99.90
17007;DHT22;8620;51.168;4.154;2024-03-08T07:45:44;5.60;99.90
17007;DHT22;8620;51.168;4.154;2024-03-08T07:48:10;5.70;99.90
17007;DHT22;8620;51.168;4.154;2024-03-08T07:50:37;6.20;99.90
17007;DHT22;8620;51.168;4.154;2024-03-08T07:53:07;6.30;99.90
17007;DHT22;8620;51.168;4.154;2024-03-08T07:55:36;6.30;99.90
17007;DHT22;8620;51.168;4.154;2024-03-08T07:58:02;6.40;99.90
17007;DHT22;8620;51.168;4.154;2024-03-08T08:00:31;6.60;99.90
17007;DHT22;8620;51.168;4.154;2024-03-08T08:02:58;6.40;99.90
17007;DHT22;8620;51.168;4.154;2024-03-08T08:05:24;6.80;99.90
17007;DHT22;8620;51.168;4.154;2024-03-08T08:07:50;6.90;99.90
17007;DHT22;8620;51.168;4.154;2024-03-08T08:10:20;6.80;99.90
17007;DHT22;8620;51.168;4.154;2024-03-08T08:12:50;7.10;99.90
17007;DHT22;8620;51.168;4.154;2024-03-08T08:15:20;7.20;99.90
17007;DHT22;8620;51.168;4.154;2024-03-08T08:17:46;7.30;99.90
17007;DHT22;8620;51.168;4.154;2024-03-08T08:20:15;7.50;99.90
17007;DHT22;8620;51.168;4.154;2024-03-08T08:22:44;7.60;99.90
17007;DHT22;8620;51.168;4.154;2024-03-08T08:25:12;7.10;99.90
17007;DHT22;8620;51.168;4.154;2024-03-08T08:27:41;7.40;99.90
17007;DHT22;8620;51.168;4.154;2024-03-08T08:30:13;7.40;99.90
17007;DHT22;8620;51.168;4.154;2024-03-08T08:32:39;7.60;99.90
17007;DHT22;8620;51.168;4.154;2024-03-08T08:35:07;7.80;99.90
17007;DHT22;8620;51.168;4.154;2024-03-08T08:37:34;8.20;99.90
17007;DHT22;8620;51.168;4.154;2024-03-08T08:40:02;8.30;99.90
17007;DHT22;8620;51.168;4.154;2024-03-08T08:42:36;8.70;99.90
17007;DHT22;8620;51.168;4.154;2024-03-08T08:45:04;8.50;99.90
17007;DHT22;8620;51.168;4.154;2024-03-08T08:47:37;8.20;99.90
17007;DHT22;8620;51.168;4.154;2024-03-08T08:50:04;8.30;99.90
17007;DHT22;8620;51.168;4.154;2024-03-08T08:52:33;8.10;99.90
17007;DHT22;8620;51.168;4.154;2024-03-08T08:55:00;8.40;99.90
17007;DHT22;8620;51.168;4.154;2024-03-08T08:57:29;8.90;99.90
17007;DHT22;8620;51.168;4.154;2024-03-08T08:59:56;8.90;99.90
17007;DHT22;8620;51.168;4.154;2024-03-08T09:02:22;8.50;99.90
17007;DHT22;8620;51.168;4.154;2024-03-08T09:04:48;8.50;99.90
17007;DHT22;8620;51.168;4.154;2024-03-08T09:07:17;8.80;99.90
17007;DHT22;8620;51.168;4.154;2024-03-08T09:09:44;9.10;99.90
17007;DHT22;8620;51.168;4.154;2024-03-08T09:12:11;9.20;99.90
17007;DHT22;8620;51.168;4.154;2024-03-08T09:14:40;9.30;99.90
17007;DHT22;8620;51.168;4.154;2024-03-08T09:17:07;9.20;99.90
17007;DHT22;8620;51.168;4.154;2024-03-08T09:19:34;9.60;99.90
17007;DHT22;8620;51.168;4.154;2024-03-08T09:22:01;9.20;99.90
17007;DHT22;8620;51.168;4.154;2024-03-08T09:24:28;9.50;99.90
17007;DHT22;8620;51.168;4.154;2024-03-08T09:26:54;9.50;99.90
17007;DHT22;8620;51.168;4.154;2024-03-08T09:29:20;9.70;99.90
17007;DHT22;8620;51.168;4.154;2024-03-08T09:31:48;9.60;99.90
17007;DHT22;8620;51.168;4.154;2024-03-08T09:34:13;9.50;99.90
17007;DHT22;8620;51.168;4.154;2024-03-08T09:36:39;9.70;99.90
17007;DHT22;8620;51.168;4.154;2024-03-08T09:39:07;9.80;99.90
17007;DHT22;8620;51.168;4.154;2024-03-08T09:41:33;9.90;99.90
17007;DHT22;8620;51.168;4.154;2024-03-08T09:44:00;10.20;99.90
17007;DHT22;8620;51.168;4.154;2024-03-08T09:46:29;10.00;99.90
17007;DHT22;8620;51.168;4.154;2024-03-08T09:48:55;9.60;99.90
17007;DHT22;8620;51.168;4.154;2024-03-08T09:51:28;9.60;99.90
17007;DHT22;8620;51.168;4.154;2024-03-08T09:53:54;9.90;99.90
17007;DHT22;8620;51.168;4.154;2024-03-08T09:56:26;10.10;99.90
17007;DHT22;8620;51.168;4.154;2024-03-08T09:58:53;10.50;99.90
17007;DHT22;8620;51.168;4.154;2024-03-08T10:01:39;10.70;99.90
17007;DHT22;8620;51.168;4.154;2024-03-08T10:04:09;10.60;99.90
17007;DHT22;8620;51.168;4.154;2024-03-08T10:06:36;10.70;99.90
17007;DHT22;8620;51.168;4.154;2024-03-08T10:09:02;10.50;99.90
17007;DHT22;8620;51.168;4.154;2024-03-08T10:11:28;10.00;99.90
17007;DHT22;8620;51.168;4.154;2024-03-08T10:13:54;10.20;99.90
17007;DHT22;8620;51.168;4.154;2024-03-08T10:16:20;10.40;99.90
17007;DHT22;8620;51.168;4.154;2024-03-08T10:18:50;10.60;99.90
17007;DHT22;8620;51.168;4.154;2024-03-08T10:33:23;10.70;99.90
17007;DHT22;8620;51.168;4.154;2024-03-08T10:35:51;11.30;99.90
17007;DHT22;8620;51.168;4.154;2024-03-08T10:38:19;11.60;99.90
17007;DHT22;8620;51.168;4.154;2024-03-08T10:40:46;11.30;99.90
17007;DHT22;8620;51.168;4.154;2024-03-08T10:43:23;11.60;99.90
17007;DHT22;8620;51.168;4.154;2024-03-08T10:45:56;11.60;99.90
17007;DHT22;8620;51.168;4.154;2024-03-08T10:48:44;11.70;99.90
17007;DHT22;8620;51.168;4.154;2024-03-08T10:51:12;11.70;99.90
17007;DHT22;8620;51.168;4.154;2024-03-08T10:53:38;11.80;99.90
17007;DHT22;8620;51.168;4.154;2024-03-08T10:56:08;11.80;99.90
17007;DHT22;8620;51.168;4.154;2024-03-08T10:59:00;11.40;99.90
17007;DHT22;8620;51.168;4.154;2024-03-08T11:01:27;11.50;99.90
17007;DHT22;8620;51.168;4.154;2024-03-08T11:03:55;11.50;99.90
17007;DHT22;8620;51.168;4.154;2024-03-08T11:09:27;11.50;99.90
17007;DHT22;8620;51.168;4.154;2024-03-08T11:12:21;11.80;99.90
17007;DHT22;8620;51.168;4.154;2024-03-08T11:14:54;12.10;99.90
17007;DHT22;8620;51.168;4.154;2024-03-08T11:17:42;11.90;99.90
17007;DHT22;8620;51.168;4.154;2024-03-08T11:20:17;12.00;99.90
17007;DHT22;8620;51.168;4.154;2024-03-08T11:23:03;12.10;99.90
17007;DHT22;8620;51.168;4.154;2024-03-08T11:25:39;12.40;99.90
17007;DHT22;8620;51.168;4.154;2024-03-08T11:28:18;12.40;99.90
17007;DHT22;8620;51.168;4.154;2024-03-08T11:33:31;12.60;99.90
17007;DHT22;8620;51.168;4.154;2024-03-08T11:36:10;12.40;99.90
17007;DHT22;8620;51.168;4.154;2024-03-08T11:38:42;12.30;99.90
17007;DHT22;8620;51.168;4.154;2024-03-08T11:41:23;12.40;99.90
17007;DHT22;8620;51.168;4.154;2024-03-08T11:44:02;12.20;99.90
17007;DHT22;8620;51.168;4.154;2024-03-08T11:46:30;12.40;99.90
17007;DHT22;8620;51.168;4.154;2024-03-08T11:48:56;12.70;99.90
17007;DHT22;8620;51.168;4.154;2024-03-08T11:51:23;13.10;99.90
17007;DHT22;8620;51.168;4.154;2024-03-08T11:53:49;12.60;99.90
17007;DHT22;8620;51.168;4.154;2024-03-08T11:56:21;12.80;99.90
17007;DHT22;8620;51.168;4.154;2024-03-08T11:59:02;12.60;99.90
17007;DHT22;8620;51.168;4.154;2024-03-08T12:01:28;12.10;99.90
17007;DHT22;8620;51.168;4.154;2024-03-08T12:03:56;12.40;99.90
17007;DHT22;8620;51.168;4.154;2024-03-08T12:06:26;12.60;99.90
17007;DHT22;8620;51.168;4.154;2024-03-08T12:08:55;12.30;99.90
17007;DHT22;8620;51.168;4.154;2024-03-08T12:11:23;12.60;99.90
17007;DHT22;8620;51.168;4.154;2024-03-08T12:13:50;12.70;99.90
17007;DHT22;8620;51.168;4.154;2024-03-08T12:16:17;12.60;99.90
17007;DHT22;8620;51.168;4.154;2024-03-08T12:18:44;12.80;99.90
17007;DHT22;8620;51.168;4.154;2024-03-08T12:21:12;13.50;99.90
17007;DHT22;8620;51.168;4.154;2024-03-08T12:23:45;13.80;99.90
17007;DHT22;8620;51.168;4.154;2024-03-08T12:26:22;13.40;99.90
17007;DHT22;8620;51.168;4.154;2024-03-08T12:28:49;12.90;99.90
17007;DHT22;8620;51.168;4.154;2024-03-08T12:31:18;12.50;99.90
17007;DHT22;8620;51.168;4.154;2024-03-08T12:33:54;12.80;99.90
17007;DHT22;8620;51.168;4.154;2024-03-08T12:36:25;13.10;99.90
17007;DHT22;8620;51.168;4.154;2024-03-08T12:38:53;12.90;99.90
17007;DHT22;8620;51.168;4.154;2024-03-08T12:41:23;12.40;99.90
17007;DHT22;8620;51.168;4.154;2024-03-08T12:43:49;12.60;99.90
17007;DHT22;8620;51.168;4.154;2024-03-08T12:46:15;12.80;99.90
17007;DHT22;8620;51.168;4.154;2024-03-08T12:48:48;12.80;99.90
17007;DHT22;8620;51.168;4.154;2024-03-08T12:51:15;12.80;99.90
17007;DHT22;8620;51.168;4.154;2024-03-08T12:53:45;12.70;99.90
17007;DHT22;8620;51.168;4.154;2024-03-08T12:56:27;12.50;99.90
17007;DHT22;8620;51.168;4.154;2024-03-08T12:58:55;12.90;99.90
17007;DHT22;8620;51.168;4.154;2024-03-08T13:01:24;12.80;99.90
17007;DHT22;8620;51.168;4.154;2024-03-08T13:03:51;12.60;99.90
17007;DHT22;8620;51.168;4.154;2024-03-08T13:06:16;12.80;99.90
17007;DHT22;8620;51.168;4.154;2024-03-08T13:08:42;12.80;99.90
17007;DHT22;8620;51.168;4.154;2024-03-08T13:11:10;12.70;99.90
17007;DHT22;8620;51.168;4.154;2024-03-08T13:13:43;12.60;99.90
17007;DHT22;8620;51.168;4.154;2024-03-08T13:16:10;12.70;99.90
17007;DHT22;8620;51.168;4.154;2024-03-08T13:18:38;12.50;99.90
17007;DHT22;8620;51.168;4.154;2024-03-08T13:21:04;12.40;99.90
17007;DHT22;8620;51.168;4.154;2024-03-08T13:23:35;12.30;99.90
17007;DHT22;8620;51.168;4.154;2024-03-08T13:26:12;12.40;99.90
17007;DHT22;8620;51.168;4.154;2024-03-08T13:28:50;12.30;99.90
17007;DHT22;8620;51.168;4.154;2024-03-08T13:31:21;12.10;99.90
17007;DHT22;8620;51.168;4.154;2024-03-08T13:33:47;12.30;99.90
17007;DHT22;8620;51.168;4.154;2024-03-08T13:36:14;12.30;99.90
17007;DHT22;8620;51.168;4.154;2024-03-08T13:38:47;12.50;99.90
17007;DHT22;8620;51.168;4.154;2024-03-08T13:41:16;12.40;99.90
17007;DHT22;8620;51.168;4.154;2024-03-08T13:43:47;12.50;99.90
17007;DHT22;8620;51.168;4.154;2024-03-08T13:46:18;12.60;99.90
17007;DHT22;8620;51.168;4.154;2024-03-08T13:48:44;12.50;99.90
17007;DHT22;8620;51.168;4.154;2024-03-08T13:51:13;12.40;99.90
17007;DHT22;8620;51.168;4.154;2024-03-08T13:53:41;12.40;99.90
17007;DHT22;8620;51.168;4.154;2024-03-08T13:56:07;12.30;99.90
17007;DHT22;8620;51.168;4.154;2024-03-08T13:58:37;12.50;99.90
17007;DHT22;8620;51.168;4.154;2024-03-08T14:01:12;12.60;99.90
17007;DHT22;8620;51.168;4.154;2024-03-08T14:03:38;12.60;99.90
17007;DHT22;8620;51.168;4.154;2024-03-08T14:06:07;12.60;99.90
17007;DHT22;8620;51.168;4.154;2024-03-08T14:08:35;12.60;99.90
17007;DHT22;8620;51.168;4.154;2024-03-08T14:11:04;12.60;99.90
17007;DHT22;8620;51.168;4.154;2024-03-08T14:13:50;12.70;99.90
17007;DHT22;8620;51.168;4.154;2024-03-08T14:16:17;12.80;99.90
17007;DHT22;8620;51.168;4.154;2024-03-08T14:18:43;13.10;99.90
17007;DHT22;8620;51.168;4.154;2024-03-08T14:21:09;13.00;99.90
17007;DHT22;8620;51.168;4.154;2024-03-08T14:23:36;12.90;99.90
17007;DHT22;8620;51.168;4.154;2024-03-08T14:26:03;12.80;99.90
17007;DHT22;8620;51.168;4.154;2024-03-08T14:28:30;12.90;99.90
17007;DHT22;8620;51.168;4.154;2024-03-08T14:30:57;12.90;99.90
17007;DHT22;8620;51.168;4.154;2024-03-08T14:33:23;12.60;99.90
17007;DHT22;8620;51.168;4.154;2024-03-08T14:35:52;12.70;99.90
17007;DHT22;8620;51.168;4.154;2024-03-08T14:38:18;12.90;99.90
17007;DHT22;8620;51.168;4.154;2024-03-08T14:40:44;12.70;99.90
17007;DHT22;8620;51.168;4.154;2024-03-08T14:43:12;12.50;99.90
17007;DHT22;8620;51.168;4.154;2024-03-08T14:45:42;12.40;99.90
17007;DHT22;8620;51.168;4.154;2024-03-08T14:48:08;12.40;99.90
17007;DHT22;8620;51.168;4.154;2024-03-08T14:51:02;12.40;99.90
17007;DHT22;8620;51.168;4.154;2024-03-08T14:53:29;12.30;99.90
17007;DHT22;8620;51.168;4.154;2024-03-08T14:55:55;12.30;99.90
17007;DHT22;8620;51.168;4.154;2024-03-08T14:58:23;12.40;99.90
17007;DHT22;8620;51.168;4.154;2024-03-08T15:00:50;12.40;99.90
17007;DHT22;8620;51.168;4.154;2024-03-08T15:03:20;12.40;99.90
17007;DHT22;8620;51.168;4.154;2024-03-08T15:05:50;12.30;99.90
17007;DHT22;8620;51.168;4.154;2024-03-08T15:08:16;12.40;99.90
17007;DHT22;8620;51.168;4.154;2024-03-08T15:10:48;12.60;99.90
17007;DHT22;8620;51.168;4.154;2024-03-08T15:13:20;12.80;99.90
17007;DHT22;8620;51.168;4.154;2024-03-08T15:15:49;12.70;99.90
17007;DHT22;8620;51.168;4.154;2024-03-08T15:18:24;12.80;99.90
17007;DHT22;8620;51.168;4.154;2024-03-08T15:21:08;12.80;99.90
17007;DHT22;8620;51.168;4.154;2024-03-08T15:23:36;12.90;99.90
17007;DHT22;8620;51.168;4.154;2024-03-08T15:26:04;12.90;99.90
17007;DHT22;8620;51.168;4.154;2024-03-08T15:28:33;12.90;99.90
17007;DHT22;8620;51.168;4.154;2024-03-08T15:31:06;13.00;99.90
17007;DHT22;8620;51.168;4.154;2024-03-08T15:33:37;13.00;99.90
17007;DHT22;8620;51.168;4.154;2024-03-08T15:36:24;12.70;99.90
17007;DHT22;8620;51.168;4.154;2024-03-08T15:38:54;12.50;99.90
17007;DHT22;8620;51.168;4.154;2024-03-08T15:41:20;12.50;99.90
17007;DHT22;8620;51.168;4.154;2024-03-08T15:43:46;12.50;99.90
17007;DHT22;8620;51.168;4.154;2024-03-08T15:46:14;12.40;99.90
17007;DHT22;8620;51.168;4.154;2024-03-08T15:48:40;12.40;99.90
17007;DHT22;8620;51.168;4.154;2024-03-08T15:54:02;12.30;99.90
17007;DHT22;8620;51.168;4.154;2024-03-08T15:56:30;12.40;99.90
17007;DHT22;8620;51.168;4.154;2024-03-08T15:58:57;12.40;99.90
17007;DHT22;8620;51.168;4.154;2024-03-08T16:01:23;12.50;99.90
17007;DHT22;8620;51.168;4.154;2024-03-08T16:03:50;12.30;99.90
17007;DHT22;8620;51.168;4.154;2024-03-08T16:06:17;12.20;99.90
17007;DHT22;8620;51.168;4.154;2024-03-08T16:08:50;12.30;99.90
17007;DHT22;8620;51.168;4.154;2024-03-08T16:11:17;12.40;99.90
17007;DHT22;8620;51.168;4.154;2024-03-08T16:13:44;12.30;99.90
17007;DHT22;8620;51.168;4.154;2024-03-08T16:16:15;12.30;99.90
17007;DHT22;8620;51.168;4.154;2024-03-08T16:18:42;12.30;99.90
17007;DHT22;8620;51.168;4.154;2024-03-08T16:21:10;12.20;99.90
17007;DHT22;8620;51.168;4.154;2024-03-08T16:23:37;12.30;99.90
17007;DHT22;8620;51.168;4.154;2024-03-08T16:26:03;12.20;99.90
17007;DHT22;8620;51.168;4.154;2024-03-08T16:28:30;12.10;99.90
17007;DHT22;8620;51.168;4.154;2024-03-08T16:31:04;11.90;99.90
17007;DHT22;8620;51.168;4.154;2024-03-08T16:33:30;12.00;99.90
17007;DHT22;8620;51.168;4.154;2024-03-08T16:35:56;12.00;99.90
17007;DHT22;8620;51.168;4.154;2024-03-08T16:38:22;12.00;99.90
17007;DHT22;8620;51.168;4.154;2024-03-08T16:40:49;11.90;99.90
17007;DHT22;8620;51.168;4.154;2024-03-08T16:43:20;12.00;99.90
17007;DHT22;8620;51.168;4.154;2024-03-08T16:45:47;12.00;99.90
17007;DHT22;8620;51.168;4.154;2024-03-08T16:48:16;12.00;99.90
17007;DHT22;8620;51.168;4.154;2024-03-08T16:50:44;11.80;99.90
17007;DHT22;8620;51.168;4.154;2024-03-08T16:53:11;11.80;99.90
17007;DHT22;8620;51.168;4.154;2024-03-08T16:55:37;11.80;99.90
17007;DHT22;8620;51.168;4.154;2024-03-08T16:58:03;11.80;99.90
17007;DHT22;8620;51.168;4.154;2024-03-08T17:00:47;12.00;99.90
17007;DHT22;8620;51.168;4.154;2024-03-08T17:03:13;11.90;99.90
17007;DHT22;8620;51.168;4.154;2024-03-08T17:05:39;11.60;99.90
17007;DHT22;8620;51.168;4.154;2024-03-08T17:08:18;11.60;99.90
17007;DHT22;8620;51.168;4.154;2024-03-08T17:10:44;11.70;99.90
17007;DHT22;8620;51.168;4.154;2024-03-08T17:13:13;11.60;99.90
17007;DHT22;8620;51.168;4.154;2024-03-08T17:15:40;11.50;99.90
17007;DHT22;8620;51.168;4.154;2024-03-08T17:18:09;11.40;99.90
17007;DHT22;8620;51.168;4.154;2024-03-08T17:20:36;11.30;99.90
17007;DHT22;8620;51.168;4.154;2024-03-08T17:23:05;11.30;99.90
17007;DHT22;8620;51.168;4.154;2024-03-08T17:25:31;11.30;99.90
17007;DHT22;8620;51.168;4.154;2024-03-08T17:28:00;11.40;99.90
17007;DHT22;8620;51.168;4.154;2024-03-08T17:30:32;11.40;99.90
17007;DHT22;8620;51.168;4.154;2024-03-08T17:33:03;11.30;99.90
17007;DHT22;8620;51.168;4.154;2024-03-08T17:35:31;11.40;99.90
17007;DHT22;8620;51.168;4.154;2024-03-08T17:38:00;11.20;99.90
17007;DHT22;8620;51.168;4.154;2024-03-08T17:40:30;11.30;99.90
17007;DHT22;8620;51.168;4.154;2024-03-08T17:43:03;11.30;99.90
17007;DHT22;8620;51.168;4.154;2024-03-08T17:45:38;11.20;99.90
17007;DHT22;8620;51.168;4.154;2024-03-08T17:48:06;11.30;99.90
17007;DHT22;8620;51.168;4.154;2024-03-08T17:50:38;11.00;99.90
17007;DHT22;8620;51.168;4.154;2024-03-08T17:53:06;11.10;99.90
17007;DHT22;8620;51.168;4.154;2024-03-08T17:55:33;10.90;99.90
17007;DHT22;8620;51.168;4.154;2024-03-08T17:58:09;11.00;99.90
17007;DHT22;8620;51.168;4.154;2024-03-08T18:00:38;10.90;99.90
17007;DHT22;8620;51.168;4.154;2024-03-08T18:03:07;11.00;99.90
17007;DHT22;8620;51.168;4.154;2024-03-08T18:05:38;11.00;99.90
17007;DHT22;8620;51.168;4.154;2024-03-08T18:08:07;11.00;99.90
17007;DHT22;8620;51.168;4.154;2024-03-08T18:10:34;11.00;99.90
17007;DHT22;8620;51.168;4.154;2024-03-08T18:13:02;11.00;99.90
17007;DHT22;8620;51.168;4.154;2024-03-08T18:15:34;10.90;99.90
17007;DHT22;8620;51.168;4.154;2024-03-08T18:18:01;10.80;99.90
17007;DHT22;8620;51.168;4.154;2024-03-08T18:20:35;10.80;99.90
17007;DHT22;8620;51.168;4.154;2024-03-08T18:23:10;10.70;99.90
17007;DHT22;8620;51.168;4.154;2024-03-08T18:25:38;10.70;99.90
17007;DHT22;8620;51.168;4.154;2024-03-08T18:28:04;10.80;99.90
17007;DHT22;8620;51.168;4.154;2024-03-08T18:30:38;10.70;99.90
17007;DHT22;8620;51.168;4.154;2024-03-08T18:33:06;10.60;99.90
17007;DHT22;8620;51.168;4.154;2024-03-08T18:35:38;10.60;99.90
17007;DHT22;8620;51.168;4.154;2024-03-08T18:38:04;10.60;99.90
17007;DHT22;8620;51.168;4.154;2024-03-08T18:41:06;10.50;99.90
17007;DHT22;8620;51.168;4.154;2024-03-08T18:43:55;10.50;99.90
17007;DHT22;8620;51.168;4.154;2024-03-08T18:46:24;10.40;99.90
17007;DHT22;8620;51.168;4.154;2024-03-08T18:48:51;10.50;99.90
17007;DHT22;8620;51.168;4.154;2024-03-08T18:51:17;10.40;99.90
17007;DHT22;8620;51.168;4.154;2024-03-08T18:53:43;10.50;99.90
17007;DHT22;8620;51.168;4.154;2024-03-08T18:56:09;10.40;99.90
17007;DHT22;8620;51.168;4.154;2024-03-08T18:58:35;10.50;99.90
17007;DHT22;8620;51.168;4.154;2024-03-08T19:01:04;10.50;99.90
17007;DHT22;8620;51.168;4.154;2024-03-08T19:03:33;10.20;99.90
17007;DHT22;8620;51.168;4.154;2024-03-08T19:06:04;10.00;99.90
17007;DHT22;8620;51.168;4.154;2024-03-08T19:08:30;10.00;99.90
17007;DHT22;8620;51.168;4.154;2024-03-08T19:11:02;10.20;99.90
17007;DHT22;8620;51.168;4.154;2024-03-08T19:13:29;10.00;99.90
17007;DHT22;8620;51.168;4.154;2024-03-08T19:15:56;10.00;99.90
17007;DHT22;8620;51.168;4.154;2024-03-08T19:18:22;10.20;99.90
17007;DHT22;8620;51.168;4.154;2024-03-08T19:20:50;10.00;99.90
17007;DHT22;8620;51.168;4.154;2024-03-08T19:23:22;10.00;99.90
17007;DHT22;8620;51.168;4.154;2024-03-08T19:25:48;10.00;99.90
17007;DHT22;8620;51.168;4.154;2024-03-08T19:28:15;9.90;99.90
17007;DHT22;8620;51.168;4.154;2024-03-08T19:30:47;9.90;99.90
17007;DHT22;8620;51.168;4.154;2024-03-08T19:33:15;10.00;99.90
17007;DHT22;8620;51.168;4.154;2024-03-08T19:35:42;10.10;99.90
17007;DHT22;8620;51.168;4.154;2024-03-08T19:38:09;10.00;99.90
17007;DHT22;8620;51.168;4.154;2024-03-08T19:40:41;9.80;99.90
17007;DHT22;8620;51.168;4.154;2024-03-08T19:43:08;9.70;99.90
17007;DHT22;8620;51.168;4.154;2024-03-08T19:45:36;9.80;99.90
17007;DHT22;8620;51.168;4.154;2024-03-08T19:48:05;9.90;99.90
17007;DHT22;8620;51.168;4.154;2024-03-08T19:50:35;9.90;99.90
17007;DHT22;8620;51.168;4.154;2024-03-08T19:53:09;9.90;99.90
17007;DHT22;8620;51.168;4.154;2024-03-08T19:55:36;9.70;99.90
17007;DHT22;8620;51.168;4.154;2024-03-08T19:58:06;9.80;99.90
17007;DHT22;8620;51.168;4.154;2024-03-08T20:00:34;9.70;99.90
17007;DHT22;8620;51.168;4.154;2024-03-08T20:03:02;9.60;99.90
17007;DHT22;8620;51.168;4.154;2024-03-08T20:05:31;9.70;99.90
17007;DHT22;8620;51.168;4.154;2024-03-08T20:07:58;9.60;99.90
17007;DHT22;8620;51.168;4.154;2024-03-08T20:10:38;9.70;99.90
17007;DHT22;8620;51.168;4.154;2024-03-08T20:13:04;9.90;99.90
17007;DHT22;8620;51.168;4.154;2024-03-08T20:15:37;9.90;99.90
17007;DHT22;8620;51.168;4.154;2024-03-08T20:18:07;9.80;99.90
17007;DHT22;8620;51.168;4.154;2024-03-08T20:20:35;9.80;99.90
17007;DHT22;8620;51.168;4.154;2024-03-08T20:23:03;9.80;99.90
17007;DHT22;8620;51.168;4.154;2024-03-08T20:25:30;9.90;99.90
17007;DHT22;8620;51.168;4.154;2024-03-08T20:27:57;9.80;99.90
17007;DHT22;8620;51.168;4.154;2024-03-08T20:30:27;9.70;99.90
17007;DHT22;8620;51.168;4.154;2024-03-08T20:32:59;9.70;99.90
17007;DHT22;8620;51.168;4.154;2024-03-08T20:35:33;9.70;99.90
17007;DHT22;8620;51.168;4.154;2024-03-08T20:38:00;9.70;99.90
17007;DHT22;8620;51.168;4.154;2024-03-08T20:40:28;9.70;99.90
17007;DHT22;8620;51.168;4.154;2024-03-08T20:43:13;9.70;99.90
17007;DHT22;8620;51.168;4.154;2024-03-08T20:45:46;9.50;99.90
17007;DHT22;8620;51.168;4.154;2024-03-08T20:48:13;9.60;99.90
17007;DHT22;8620;51.168;4.154;2024-03-08T20:50:39;9.70;99.90
17007;DHT22;8620;51.168;4.154;2024-03-08T20:53:08;9.80;99.90
17007;DHT22;8620;51.168;4.154;2024-03-08T20:55:37;9.70;99.90
17007;DHT22;8620;51.168;4.154;2024-03-08T20:58:13;9.70;99.90
